createdAt,value
2019-04-30T00:01:55.052Z,99.90
2019-04-30T00:04:19.029Z,99.90
2019-04-30T00:06:59.151Z,99.90
2019-04-30T00:09:35.030Z,99.90
2019-04-30T00:12:11.617Z,99.90
2019-04-30T00:14:47.014Z,99.90
2019-04-30T00:17:28.637Z,99.90
2019-04-30T00:19:55.842Z,99.90
2019-04-30T00:22:30.951Z,99.90
2019-04-30T00:24:51.899Z,99.90
2019-04-30T00:27:26.383Z,99.90
2019-04-30T00:29:52.555Z,99.90
2019-04-30T00:32:22.086Z,99.90
2019-04-30T00:34:51.559Z,99.90
2019-04-30T00:37:21.065Z,99.90
2019-04-30T00:39:51.578Z,99.90
2019-04-30T00:42:24.447Z,99.90
2019-04-30T00:44:53.083Z,99.90
2019-04-30T00:47:22.555Z,99.90
2019-04-30T00:49:56.314Z,99.90
2019-04-30T00:52:25.195Z,99.90
2019-04-30T00:54:55.320Z,99.90
2019-04-30T00:57:26.529Z,99.90
2019-04-30T00:59:56.259Z,99.90
2019-04-30T01:02:42.850Z,99.90
2019-04-30T01:05:15.773Z,99.90
2019-04-30T01:07:50.753Z,99.90
2019-04-30T01:10:19.616Z,99.90
2019-04-30T01:12:50.295Z,99.90
2019-04-30T01:15:19.153Z,99.90
2019-04-30T01:17:50.964Z,99.90
2019-04-30T01:20:24.061Z,99.90
2019-04-30T01:22:51.701Z,99.90
2019-04-30T01:25:21.221Z,99.90
2019-04-30T01:27:51.806Z,99.90
2019-04-30T01:30:22.892Z,99.90
2019-04-30T01:32:56.887Z,99.90
2019-04-30T01:35:28.040Z,99.90
2019-04-30T01:37:54.809Z,99.90
2019-04-30T01:40:24.271Z,99.90
2019-04-30T01:42:53.908Z,99.90
2019-04-30T01:45:30.146Z,99.90
2019-04-30T01:47:54.544Z,99.90
2019-04-30T01:50:24.020Z,99.90
2019-04-30T01:52:53.733Z,99.90
2019-04-30T01:55:49.815Z,99.90
2019-04-30T01:58:39.356Z,99.90
2019-04-30T02:01:14.024Z,99.90
2019-04-30T02:03:43.510Z,99.90
2019-04-30T02:06:13.000Z,99.90
2019-04-30T02:08:42.496Z,99.90
2019-04-30T02:11:11.960Z,99.90
2019-04-30T02:13:43.756Z,99.90
2019-04-30T02:16:15.263Z,99.90
2019-04-30T02:18:44.784Z,99.90
2019-04-30T02:21:14.248Z,99.90
2019-04-30T02:23:44.102Z,99.90
2019-04-30T02:26:13.607Z,99.90
2019-04-30T02:28:43.264Z,99.90
2019-04-30T02:31:12.748Z,99.90
2019-04-30T02:33:46.659Z,99.90
2019-04-30T02:36:35.098Z,99.90
2019-04-30T02:39:05.332Z,99.90
2019-04-30T02:41:36.133Z,99.90
2019-04-30T02:44:06.543Z,99.90
2019-04-30T02:46:40.485Z,99.90
2019-04-30T02:49:10.727Z,99.90
2019-04-30T02:51:42.516Z,99.90
2019-04-30T02:54:23.238Z,99.90
2019-04-30T02:57:15.702Z,99.90
2019-04-30T03:00:02.863Z,99.90
2019-04-30T03:02:33.328Z,99.90
2019-04-30T03:05:02.858Z,99.90
2019-04-30T03:07:32.332Z,99.90
2019-04-30T03:10:01.833Z,99.90
2019-04-30T03:12:33.750Z,99.90
2019-04-30T03:15:02.412Z,99.90
2019-04-30T03:18:00.573Z,99.90
2019-04-30T03:20:45.082Z,99.90
2019-04-30T03:23:14.578Z,99.90
2019-04-30T03:25:44.034Z,99.90
2019-04-30T03:28:13.829Z,99.90
2019-04-30T03:30:43.389Z,99.90
2019-04-30T03:33:13.611Z,99.90
2019-04-30T03:35:47.773Z,99.90
2019-04-30T03:38:14.790Z,99.90
2019-04-30T03:40:44.290Z,99.90
2019-04-30T03:43:14.014Z,99.90
2019-04-30T03:45:43.611Z,99.90
2019-04-30T03:48:13.081Z,99.90
2019-04-30T03:50:53.252Z,99.90
2019-04-30T03:53:20.143Z,99.90
2019-04-30T03:55:50.554Z,99.90
2019-04-30T03:58:21.417Z,99.90
2019-04-30T04:01:09.911Z,99.90
2019-04-30T04:04:00.186Z,99.90
2019-04-30T04:06:33.337Z,99.90
2019-04-30T04:09:10.475Z,99.90
2019-04-30T04:11:42.038Z,99.90
2019-04-30T04:14:12.075Z,99.90
2019-04-30T04:16:41.524Z,99.90
2019-04-30T04:19:13.054Z,99.90
2019-04-30T04:21:42.723Z,99.90
2019-04-30T04:24:12.187Z,99.90
2019-04-30T04:26:43.932Z,99.90
2019-04-30T04:29:12.839Z,99.90
2019-04-30T04:31:42.520Z,99.90
2019-04-30T04:34:12.056Z,99.90
2019-04-30T04:36:43.521Z,99.90
2019-04-30T04:39:13.079Z,99.90
2019-04-30T04:41:44.304Z,99.90
2019-04-30T04:44:13.897Z,99.90
2019-04-30T04:46:43.737Z,99.90
2019-04-30T04:49:13.274Z,99.90
2019-04-30T04:51:42.773Z,99.90
2019-04-30T04:54:12.287Z,99.90
2019-04-30T04:56:41.800Z,99.90
2019-04-30T04:59:11.262Z,99.90
2019-04-30T05:01:40.967Z,99.90
2019-04-30T05:04:11.793Z,99.90
2019-04-30T05:06:41.589Z,99.90
2019-04-30T05:09:11.031Z,99.90
2019-04-30T05:11:40.584Z,99.90
2019-04-30T05:14:10.968Z,99.90
2019-04-30T05:19:45.002Z,99.90
2019-04-30T05:22:35.867Z,99.90
2019-04-30T05:24:44.793Z,99.90
2019-04-30T05:27:15.934Z,99.90
2019-04-30T05:29:54.113Z,99.90
2019-04-30T05:32:25.920Z,99.90
2019-04-30T05:35:18.571Z,99.90
2019-04-30T05:41:21.643Z,99.90
2019-04-30T06:19:01.691Z,99.20
2019-04-30T06:21:33.623Z,98.30
2019-04-30T06:24:03.152Z,98.40
2019-04-30T06:26:32.665Z,98.10
2019-04-30T06:29:02.267Z,96.40
2019-04-30T06:31:37.295Z,96.60
2019-04-30T06:34:04.606Z,95.80
2019-04-30T06:36:34.073Z,94.80
2019-04-30T06:39:03.679Z,94.80
2019-04-30T06:41:33.223Z,94.20
2019-04-30T06:44:02.903Z,94.00
2019-04-30T06:46:34.819Z,94.00
2019-04-30T06:49:19.409Z,94.00
2019-04-30T06:52:17.479Z,93.10
2019-04-30T06:55:05.584Z,92.60
2019-04-30T06:57:38.723Z,91.60
2019-04-30T07:00:56.685Z,91.20
2019-04-30T07:03:49.167Z,90.70
2019-04-30T07:06:29.828Z,90.10
2019-04-30T07:12:52.863Z,86.60
2019-04-30T07:15:22.996Z,88.10
2019-04-30T07:17:55.537Z,84.90
2019-04-30T07:20:25.185Z,83.20
2019-04-30T07:23:02.216Z,83.00
2019-04-30T07:25:29.318Z,81.80
2019-04-30T07:27:59.829Z,83.10
2019-04-30T07:30:30.953Z,80.80
2019-04-30T07:33:02.989Z,82.40
2019-04-30T07:35:33.709Z,82.00
2019-04-30T07:38:11.996Z,81.10
2019-04-30T07:40:51.050Z,78.10
2019-04-30T07:45:00.570Z,78.50
2019-04-30T07:48:43.478Z,76.60
2019-04-30T07:51:20.535Z,75.50
2019-04-30T07:53:59.014Z,75.60
2019-04-30T07:56:40.871Z,73.90
2019-04-30T08:08:32.349Z,72.30
2019-04-30T08:14:42.748Z,74.90
2019-04-30T08:22:56.206Z,73.70
2019-04-30T08:25:25.668Z,72.50
2019-04-30T08:27:59.131Z,71.40
2019-04-30T08:30:29.892Z,69.20
2019-04-30T08:32:59.555Z,70.00
2019-04-30T08:35:29.718Z,70.20
2019-04-30T08:38:01.044Z,68.50
2019-04-30T08:40:43.105Z,67.30
2019-04-30T08:46:42.093Z,67.30
2019-04-30T08:49:15.323Z,66.70
2019-04-30T08:51:55.837Z,63.90
2019-04-30T08:58:09.283Z,65.40
2019-04-30T09:04:38.779Z,64.20
2019-04-30T09:11:21.808Z,60.60
2019-04-30T09:17:12.151Z,58.60
2019-04-30T09:19:41.729Z,58.20
2019-04-30T09:22:15.151Z,58.20
2019-04-30T09:24:42.511Z,54.40
2019-04-30T09:27:12.025Z,54.00
2019-04-30T09:29:44.639Z,54.90
2019-04-30T09:32:19.221Z,55.90
2019-04-30T09:35:10.538Z,55.40
2019-04-30T09:37:41.869Z,55.70
2019-04-30T09:40:14.767Z,54.20
2019-04-30T09:42:39.815Z,55.20
2019-04-30T09:45:15.346Z,53.40
2019-04-30T09:47:46.204Z,53.20
2019-04-30T09:50:25.022Z,52.40
2019-04-30T09:52:56.043Z,52.10
2019-04-30T09:55:31.534Z,48.50
2019-04-30T09:58:16.765Z,51.30
2019-04-30T10:00:40.306Z,48.80
2019-04-30T10:03:11.931Z,49.10
2019-04-30T10:05:49.036Z,49.80
2019-04-30T10:11:45.335Z,49.60
2019-04-30T10:14:16.531Z,49.00
2019-04-30T10:17:14.259Z,49.40
2019-04-30T10:19:49.159Z,48.40
2019-04-30T10:22:24.340Z,47.00
2019-04-30T10:24:59.686Z,46.50
2019-04-30T10:27:31.052Z,45.80
2019-04-30T10:30:11.623Z,46.80
2019-04-30T10:34:35.534Z,47.80
2019-04-30T10:35:18.362Z,46.90
2019-04-30T10:37:53.776Z,47.10
2019-04-30T10:40:29.615Z,47.00
2019-04-30T10:43:08.935Z,46.60
2019-04-30T10:46:03.211Z,47.40
2019-04-30T10:48:34.567Z,48.10
2019-04-30T10:51:08.921Z,47.20
2019-04-30T10:53:55.196Z,47.90
2019-04-30T10:56:29.038Z,47.50
2019-04-30T10:59:04.260Z,48.30
2019-04-30T11:01:40.974Z,48.80
2019-04-30T11:10:47.608Z,46.40
2019-04-30T11:13:17.601Z,47.10
2019-04-30T11:16:12.549Z,47.90
2019-04-30T11:18:51.382Z,48.00
2019-04-30T11:21:25.942Z,48.80
2019-04-30T11:24:02.356Z,49.10
2019-04-30T11:26:39.880Z,49.20
2019-04-30T11:29:14.015Z,48.60
2019-04-30T11:31:56.734Z,47.70
2019-04-30T11:34:28.313Z,46.40
2019-04-30T11:37:25.341Z,46.10
2019-04-30T11:40:05.885Z,45.20
2019-04-30T11:42:46.527Z,45.20
2019-04-30T11:45:24.221Z,46.10
2019-04-30T11:48:04.567Z,45.70
2019-04-30T11:50:44.864Z,44.30
2019-04-30T11:53:30.695Z,45.10
2019-04-30T11:56:09.823Z,44.30
2019-04-30T11:58:48.800Z,44.10
2019-04-30T12:01:22.414Z,44.20
2019-04-30T12:04:03.728Z,44.90
2019-04-30T12:06:28.745Z,45.90
2019-04-30T12:09:20.094Z,45.40
2019-04-30T12:11:51.190Z,44.20
2019-04-30T12:14:30.762Z,44.00
2019-04-30T12:17:06.930Z,44.70
2019-04-30T12:19:40.016Z,44.60
2019-04-30T12:22:16.043Z,43.30
2019-04-30T12:25:12.395Z,43.40
2019-04-30T12:28:00.021Z,44.60
2019-04-30T12:30:23.977Z,43.90
2019-04-30T12:32:50.192Z,44.70
2019-04-30T12:35:42.097Z,45.60
2019-04-30T12:38:19.258Z,45.80
2019-04-30T12:41:03.116Z,45.50
2019-04-30T12:43:49.509Z,45.90
2019-04-30T12:46:21.268Z,44.40
2019-04-30T12:49:01.668Z,43.50
2019-04-30T12:51:58.833Z,43.40
2019-04-30T12:54:51.718Z,44.30
2019-04-30T12:57:55.312Z,45.30
2019-04-30T13:00:21.881Z,45.20
2019-04-30T13:02:53.090Z,46.10
2019-04-30T13:05:29.689Z,47.00
2019-04-30T13:08:05.463Z,46.10
2019-04-30T13:10:40.240Z,46.60
2019-04-30T13:13:19.065Z,46.50
2019-04-30T13:16:05.484Z,46.60
2019-04-30T13:18:39.992Z,46.90
2019-04-30T13:21:23.526Z,46.30
2019-04-30T13:24:15.290Z,45.30
2019-04-30T13:26:42.712Z,45.40
2019-04-30T13:29:31.957Z,45.30
2019-04-30T13:32:05.250Z,44.70
2019-04-30T13:34:47.398Z,45.10
2019-04-30T13:37:22.702Z,45.20
2019-04-30T13:40:12.003Z,44.90
2019-04-30T13:42:51.231Z,44.70
2019-04-30T13:45:25.803Z,44.40
2019-04-30T13:47:59.596Z,45.30
2019-04-30T13:50:33.119Z,45.20
2019-04-30T13:53:09.392Z,44.90
2019-04-30T13:55:45.478Z,44.20
2019-04-30T13:58:14.969Z,43.80
2019-04-30T14:00:49.435Z,43.80
2019-04-30T14:03:32.866Z,43.90
2019-04-30T14:06:09.107Z,43.90
2019-04-30T14:08:59.693Z,43.90
2019-04-30T14:11:53.075Z,44.50
2019-04-30T14:14:39.519Z,45.50
2019-04-30T14:17:09.464Z,46.70
2019-04-30T14:19:47.931Z,47.20
2019-04-30T14:22:23.165Z,47.10
2019-04-30T14:25:06.207Z,47.20
2019-04-30T14:27:49.324Z,47.40
2019-04-30T14:30:20.499Z,47.50
2019-04-30T14:32:52.807Z,46.00
2019-04-30T14:35:24.460Z,45.10
2019-04-30T14:38:05.189Z,43.90
2019-04-30T14:40:39.963Z,43.30
2019-04-30T14:43:22.476Z,44.00
2019-04-30T14:46:33.190Z,44.30
2019-04-30T14:49:41.655Z,43.20
2019-04-30T14:52:24.007Z,43.80
2019-04-30T14:55:15.009Z,43.70
2019-04-30T14:58:10.795Z,44.10
2019-04-30T15:03:32.551Z,45.30
2019-04-30T15:06:10.215Z,44.90
2019-04-30T15:08:44.522Z,45.40
2019-04-30T15:11:16.252Z,45.30
2019-04-30T15:14:09.203Z,45.40
2019-04-30T15:16:46.280Z,44.40
2019-04-30T15:19:15.444Z,44.00
2019-04-30T15:21:48.032Z,43.80
2019-04-30T15:24:29.746Z,43.80
2019-04-30T15:27:02.112Z,44.00
2019-04-30T15:29:34.406Z,43.60
2019-04-30T15:32:08.670Z,43.10
2019-04-30T15:34:42.391Z,42.70
2019-04-30T15:37:23.665Z,43.90
2019-04-30T15:39:49.050Z,43.00
2019-04-30T15:42:26.742Z,43.20
2019-04-30T15:45:00.076Z,43.60
2019-04-30T15:47:32.155Z,43.00
2019-04-30T15:50:09.786Z,43.00
2019-04-30T15:52:40.286Z,41.90
2019-04-30T15:55:13.720Z,42.20
2019-04-30T15:58:04.303Z,42.90
2019-04-30T16:00:39.351Z,41.10
2019-04-30T16:03:16.258Z,39.70
2019-04-30T16:05:49.448Z,40.80
2019-04-30T16:08:39.011Z,40.20
2019-04-30T16:11:32.157Z,43.20
2019-04-30T16:14:18.596Z,44.00
2019-04-30T16:17:24.960Z,44.10
2019-04-30T16:20:01.038Z,44.40
2019-04-30T16:23:09.215Z,44.40
2019-04-30T16:25:43.922Z,44.10
2019-04-30T16:28:19.478Z,44.90
2019-04-30T16:30:59.647Z,44.70
2019-04-30T16:33:29.420Z,45.10
2019-04-30T16:36:12.553Z,45.70
2019-04-30T16:38:44.600Z,46.40
2019-04-30T16:45:05.311Z,47.30
2019-04-30T16:49:39.571Z,48.00
2019-04-30T16:51:14.594Z,48.00
2019-04-30T16:53:41.885Z,48.80
2019-04-30T16:56:20.316Z,49.10
2019-04-30T17:34:58.763Z,59.80
2019-04-30T17:37:31.510Z,61.50
2019-04-30T17:43:39.440Z,66.80
2019-04-30T17:46:09.224Z,70.80
2019-04-30T17:48:39.474Z,72.50
2019-04-30T17:51:11.006Z,74.20
2019-04-30T17:54:05.265Z,75.10
2019-04-30T17:56:37.564Z,74.80
2019-04-30T17:59:44.958Z,76.30
2019-04-30T18:02:16.230Z,76.90
2019-04-30T18:05:15.982Z,78.20
2019-04-30T18:11:41.814Z,80.50
2019-04-30T18:14:21.077Z,81.70
2019-04-30T18:16:54.500Z,82.80
2019-04-30T18:19:57.407Z,83.10
2019-04-30T18:22:45.812Z,83.20
2019-04-30T18:25:53.879Z,83.80
2019-04-30T18:28:32.411Z,84.40
2019-04-30T18:31:15.787Z,85.20
2019-04-30T18:33:59.807Z,86.10
2019-04-30T18:36:35.021Z,86.60
2019-04-30T18:39:19.685Z,86.70
2019-04-30T18:42:02.902Z,87.20
2019-04-30T18:44:39.013Z,87.50
2019-04-30T18:47:14.306Z,87.60
2019-04-30T18:49:53.459Z,88.10
2019-04-30T18:52:29.414Z,88.80
2019-04-30T18:55:19.250Z,89.40
2019-04-30T18:57:35.113Z,89.30
2019-04-30T19:00:07.078Z,89.80
2019-04-30T19:02:40.466Z,90.10
2019-04-30T19:05:19.057Z,90.20
2019-04-30T19:07:59.087Z,90.40
2019-04-30T19:10:46.960Z,90.60
2019-04-30T19:13:44.568Z,90.50
2019-04-30T19:16:34.297Z,91.20
2019-04-30T19:19:29.790Z,91.30
2019-04-30T19:21:59.610Z,91.60
2019-04-30T19:24:32.492Z,91.80
2019-04-30T19:27:08.666Z,91.90
2019-04-30T19:29:43.712Z,91.70
2019-04-30T19:32:30.299Z,91.40
2019-04-30T19:35:14.888Z,91.00
2019-04-30T19:38:12.594Z,91.00
2019-04-30T19:40:54.420Z,91.50
2019-04-30T19:43:33.127Z,91.90
2019-04-30T19:46:13.397Z,92.70
2019-04-30T19:48:50.441Z,93.00
2019-04-30T19:51:23.589Z,93.40
2019-04-30T19:53:59.852Z,93.40
2019-04-30T19:56:39.231Z,93.50
2019-04-30T19:59:13.031Z,93.50
2019-04-30T20:01:48.846Z,93.80
2019-04-30T20:04:52.441Z,94.10
2019-04-30T20:06:58.983Z,93.90
2019-04-30T20:09:32.079Z,94.00
2019-04-30T20:12:03.403Z,94.00
2019-04-30T20:14:34.513Z,94.50
2019-04-30T20:17:19.004Z,94.50
2019-04-30T20:19:51.273Z,94.60
2019-04-30T20:22:29.139Z,95.10
2019-04-30T20:25:05.384Z,95.20
2019-04-30T20:27:40.327Z,95.30
2019-04-30T20:30:12.878Z,95.50
2019-04-30T20:32:46.146Z,95.60
2019-04-30T20:35:26.731Z,95.70
2019-04-30T20:38:19.360Z,95.80
2019-04-30T20:40:59.479Z,95.60
2019-04-30T20:43:23.100Z,95.60
2019-04-30T20:45:52.821Z,95.70
2019-04-30T20:48:22.528Z,95.70
2019-04-30T20:50:53.411Z,96.20
2019-04-30T20:53:23.218Z,96.60
2019-04-30T20:55:52.949Z,97.30
2019-04-30T20:58:28.208Z,97.50
2019-04-30T21:01:06.390Z,97.80
2019-04-30T21:03:35.195Z,98.10
2019-04-30T21:06:09.531Z,98.30
2019-04-30T21:08:42.090Z,98.50
2019-04-30T21:11:15.708Z,98.80
2019-04-30T21:13:50.360Z,98.80
2019-04-30T21:16:21.634Z,98.90
2019-04-30T21:18:53.311Z,99.00
2019-04-30T21:21:28.700Z,99.10
2019-04-30T21:23:59.374Z,99.40
2019-04-30T21:26:30.628Z,99.50
2019-04-30T21:29:11.181Z,99.80
2019-04-30T21:31:46.982Z,99.90
2019-04-30T21:34:40.981Z,99.90
2019-04-30T21:37:09.406Z,99.90
2019-04-30T21:39:42.006Z,99.90
2019-04-30T21:42:17.133Z,99.90
2019-04-30T21:45:32.330Z,99.90
2019-04-30T21:47:18.542Z,99.90
2019-04-30T21:49:49.445Z,99.90
2019-04-30T21:52:21.041Z,99.90
2019-04-30T21:54:53.853Z,99.90
2019-04-30T21:57:26.957Z,99.90
2019-04-30T21:59:58.867Z,99.90
2019-04-30T22:02:31.095Z,99.90
2019-04-30T22:05:00.760Z,99.90
2019-04-30T22:07:30.361Z,99.90
2019-04-30T22:10:00.170Z,99.90
2019-04-30T22:12:34.378Z,99.90
2019-04-30T22:15:07.098Z,99.90
2019-04-30T22:17:40.930Z,99.90
2019-04-30T22:20:10.294Z,99.90
2019-04-30T22:22:45.537Z,99.90
2019-04-30T22:25:15.280Z,99.90
2019-04-30T22:27:44.922Z,99.90
2019-04-30T22:30:17.613Z,99.90
2019-04-30T22:32:49.707Z,99.90
2019-04-30T22:35:39.340Z,99.90
2019-04-30T22:38:11.941Z,99.90
2019-04-30T22:40:43.207Z,99.90
2019-04-30T22:43:12.995Z,99.90
2019-04-30T22:45:52.219Z,99.90
2019-04-30T22:48:24.499Z,99.90
2019-04-30T22:50:54.153Z,99.90
2019-04-30T22:53:25.804Z,99.90
2019-04-30T22:55:56.709Z,99.90
2019-04-30T22:58:27.997Z,99.90
2019-04-30T23:01:09.523Z,99.90
2019-04-30T23:03:42.378Z,99.90
2019-04-30T23:06:12.007Z,99.90
2019-04-30T23:08:43.923Z,99.90
2019-04-30T23:11:14.749Z,99.90
2019-04-30T23:13:50.347Z,99.90
2019-04-30T23:16:25.510Z,99.90
2019-04-30T23:18:55.145Z,99.90
2019-04-30T23:21:32.252Z,99.90
2019-04-30T23:24:02.987Z,99.90
2019-04-30T23:26:39.502Z,99.90
2019-04-30T23:29:22.383Z,99.90
2019-04-30T23:31:41.855Z,99.90
2019-04-30T23:34:17.716Z,99.90
2019-04-30T23:36:45.407Z,99.90
2019-04-30T23:39:22.348Z,99.90
2019-04-30T23:42:00.090Z,99.90
2019-04-30T23:44:33.358Z,99.90
2019-04-30T23:47:10.187Z,99.90
2019-04-30T23:49:41.566Z,99.90
2019-04-30T23:52:11.155Z,99.90
2019-04-30T23:54:51.528Z,99.90
2019-04-30T23:57:26.937Z,99.90
2019-04-30T23:59:56.609Z,99.90
